Sandown, United Kingdom
Current Conditions -  °F | °C
As of 1:20 PM on Sunday 21 Dec 2014 (Local Time) from EGHI Reporting Station
Broken Clouds Broken Clouds  
Wind Chill: 43°   Ceiling: 2400
Heat Index: 48°   Visibility: 6mi
Dew Point: 43°   Wind: 14mph
Humidity: 82%   Direction: 250°WSW
Pressure: 30.36"   Gusts: NA
Location:  50.65°N, 1.16°W
Report Text: EGHI 211320Z 25012KT 210V280 9999 FEW018 BKN024 09/06 Q1028
Loading
Personal Weather Stations






























Interactive Weather Map New forecast layout! Learn more

10-Day Weather Forecast

Advertisements
Track Severe Weather on mobile